createdAt,value
2017-04-13T10:01:48.864Z,61.51
2017-04-13T10:02:48.561Z,62.17
2017-04-13T10:03:48.597Z,61.98
2017-04-13T10:04:48.638Z,61.41
2017-04-13T10:05:48.672Z,61.31
2017-04-13T10:06:48.708Z,61.22
2017-04-13T10:07:48.739Z,61.31
2017-04-13T10:08:48.778Z,61.66
2017-04-13T10:09:48.813Z,62.52
2017-04-13T10:10:48.854Z,63.16
2017-04-13T10:11:48.863Z,63.54
2017-04-13T10:12:48.910Z,64.85
2017-04-13T10:13:48.948Z,66.06
2017-04-13T10:14:48.983Z,66.98
2017-04-13T10:15:49.011Z,67.55
2017-04-13T10:16:49.047Z,68.32
2017-04-13T10:17:49.086Z,68.32
2017-04-13T10:18:49.106Z,68.22
2017-04-13T10:19:49.149Z,67.87
2017-04-13T10:20:49.178Z,64.85
2017-04-13T10:21:49.221Z,60.06
2017-04-13T10:22:49.253Z,55.4
2017-04-13T10:23:49.286Z,50.7
2017-04-13T10:24:49.305Z,48.02
2017-04-13T10:25:49.346Z,47.94
2017-04-13T10:26:49.391Z,47.92
2017-04-13T10:27:49.422Z,49.69
2017-04-13T10:28:49.459Z,51.45
2017-04-13T10:29:49.495Z,52.4
2017-04-13T10:30:49.513Z,50.63
2017-04-13T10:31:49.556Z,48.3
2017-04-13T10:32:49.592Z,45.94
2017-04-13T10:33:49.613Z,43.89
2017-04-13T10:34:49.658Z,42.19
2017-04-13T10:35:49.693Z,41.05
2017-04-13T10:36:49.724Z,40.5
2017-04-13T10:37:49.764Z,39.64
2017-04-13T10:38:49.802Z,39.11
2017-04-13T10:39:49.831Z,37.59
2017-04-13T10:40:49.865Z,37.23
2017-04-13T10:41:49.904Z,38.33
2017-04-13T10:42:49.940Z,41.13
2017-04-13T10:43:49.973Z,43.73
2017-04-13T10:44:50.008Z,46.16
2017-04-13T10:45:50.052Z,49.48
2017-04-13T10:46:50.078Z,50.1
2017-04-13T10:47:50.103Z,50.2
2017-04-13T10:48:50.148Z,49.15
2017-04-13T10:49:50.184Z,47.1
2017-04-13T10:50:50.210Z,46.01
2017-04-13T10:51:50.256Z,45.1
2017-04-13T10:52:50.289Z,43.77
2017-04-13T10:53:50.331Z,44.27
2017-04-13T10:54:50.363Z,44.73
2017-04-13T10:55:50.398Z,45.17
2017-04-13T10:56:50.430Z,46.67
2017-04-13T10:57:50.463Z,48.81
2017-04-13T10:58:50.504Z,49.91
2017-04-13T10:59:50.535Z,51.3
2017-04-13T11:00:50.572Z,52.5
2017-04-13T11:01:50.613Z,54.48
2017-04-13T11:02:50.643Z,54.96
2017-04-13T11:03:50.682Z,54.86
2017-04-13T11:04:50.715Z,53.67
2017-04-13T11:05:50.794Z,52.45
2017-04-13T11:06:50.785Z,52.28
2017-04-13T11:07:50.815Z,52.19
2017-04-13T11:08:50.850Z,52.36
2017-04-13T11:09:50.884Z,52.93
2017-04-13T11:10:50.917Z,52.36
2017-04-13T11:11:50.961Z,50.94
2017-04-13T11:12:50.987Z,48.61
2017-04-13T11:13:51.014Z,46.57
2017-04-13T11:14:51.062Z,46.01
2017-04-13T11:15:51.104Z,46.14
2017-04-13T11:16:51.122Z,45.92
2017-04-13T11:17:51.168Z,46.38
2017-04-13T11:18:51.200Z,47.24
2017-04-13T11:19:51.222Z,46.67
2017-04-13T11:20:51.268Z,46.38
2017-04-13T11:21:51.311Z,46.93
2017-04-13T11:22:51.341Z,47.39
2017-04-13T11:23:51.371Z,48.81
2017-04-13T11:24:51.420Z,49.84
2017-04-13T11:25:51.446Z,49.91
2017-04-13T11:26:51.481Z,50.56
2017-04-13T11:27:51.517Z,52.36
2017-04-13T11:28:51.550Z,52.55
2017-04-13T11:29:51.588Z,52.97
2017-04-13T11:30:51.623Z,54.03
2017-04-13T11:31:51.656Z,54.67
2017-04-13T11:32:51.693Z,55.02
2017-04-13T11:33:51.712Z,54.74
2017-04-13T11:34:51.757Z,54.36
2017-04-13T11:35:51.790Z,53.62
2017-04-13T11:36:51.820Z,53.26
2017-04-13T11:37:51.861Z,52.71
2017-04-13T11:38:51.897Z,51.51
2017-04-13T11:39:51.977Z,50.94
2017-04-13T11:40:51.967Z,50.87
2017-04-13T11:41:52.001Z,49.26
2017-04-13T11:42:52.031Z,48.54
2017-04-13T11:43:52.068Z,47.44
2017-04-13T11:44:52.105Z,47.05
2017-04-13T11:45:52.138Z,46.14
2017-04-13T11:46:52.172Z,46.23
2017-04-13T11:47:52.208Z,47.05
2017-04-13T11:48:52.242Z,48.47
2017-04-13T11:49:52.267Z,50.44
2017-04-13T11:50:52.314Z,52.24
2017-04-13T11:51:52.342Z,53.27
2017-04-13T11:52:52.365Z,52.95
2017-04-13T11:53:52.412Z,53.22
2017-04-13T11:54:52.444Z,53.96
2017-04-13T11:55:52.481Z,53.64
2017-04-13T11:56:52.516Z,54.5
2017-04-13T11:57:52.548Z,54.28
2017-04-13T11:58:52.581Z,54.57
2017-04-13T11:59:52.618Z,55.05
2017-04-13T12:00:52.653Z,55.34
2017-04-13T12:01:52.681Z,55.82
2017-04-13T12:02:52.715Z,56.2
2017-04-13T12:03:52.748Z,56.37
2017-04-13T12:04:52.787Z,56.37
2017-04-13T12:05:52.819Z,56.56
2017-04-13T12:06:52.855Z,56.94
2017-04-13T12:07:52.890Z,57.13
2017-04-13T12:08:52.919Z,56.77
2017-04-13T12:09:52.959Z,56.1
2017-04-13T12:10:52.989Z,55.63
2017-04-13T12:11:53.019Z,55.15
2017-04-13T12:12:53.057Z,55.63
2017-04-13T12:13:53.104Z,55.53
2017-04-13T12:14:53.125Z,55.24
2017-04-13T12:15:53.170Z,55.73
2017-04-13T12:16:53.194Z,55.24
2017-04-13T12:17:53.226Z,55.44
2017-04-13T12:18:53.265Z,55.6
2017-04-13T12:19:53.297Z,54.83
2017-04-13T12:20:53.330Z,54.55
2017-04-13T12:21:53.372Z,54.74
2017-04-13T12:22:53.399Z,55.67
2017-04-13T12:23:53.428Z,56.69
2017-04-13T12:24:53.461Z,57.65
2017-04-13T12:25:53.502Z,58.38
2017-04-13T12:26:53.530Z,59.63
2017-04-13T12:27:53.565Z,60.2
2017-04-13T12:28:53.598Z,61.03
2017-04-13T12:29:53.636Z,61.6
2017-04-13T12:30:53.668Z,62.71
2017-04-13T12:31:53.695Z,63.29
2017-04-13T12:32:53.737Z,63.48
2017-04-13T12:33:53.770Z,64.31
2017-04-13T12:34:53.794Z,64.78
2017-04-13T12:35:53.822Z,64.5
2017-04-13T12:36:53.861Z,65.36
2017-04-13T12:37:53.904Z,66.5
2017-04-13T12:38:53.934Z,67.83
2017-04-13T12:39:53.959Z,68.98
2017-04-13T12:40:54.200Z,69.81
2017-04-13T12:41:54.038Z,70.47
2017-04-13T12:42:54.062Z,70.19
2017-04-13T12:43:54.084Z,70.72
2017-04-13T12:44:54.125Z,70.67
2017-04-13T12:45:54.153Z,70.67
2017-04-13T12:46:54.189Z,71.39
2017-04-13T12:47:54.220Z,71.68
2017-04-13T12:48:54.250Z,71.43
2017-04-13T12:49:54.289Z,71.14
2017-04-13T12:50:54.318Z,71.23
2017-04-13T12:51:54.358Z,71.14
2017-04-13T12:52:54.379Z,70.47
2017-04-13T12:53:54.414Z,70.32
2017-04-13T12:54:54.445Z,69.93
2017-04-13T12:55:54.481Z,69.02
2017-04-13T12:56:54.506Z,67.87
2017-04-13T12:57:54.527Z,66.47
2017-04-13T12:58:54.573Z,66.38
2017-04-13T12:59:54.608Z,66.13
2017-04-13T13:00:54.642Z,65.93
2017-04-13T13:01:54.677Z,66.13
2017-04-13T13:02:54.693Z,65.17
2017-04-13T13:03:54.733Z,65.26
2017-04-13T13:04:54.768Z,65.61
2017-04-13T13:05:54.801Z,66
2017-04-13T13:06:54.982Z,66.38
2017-04-13T13:07:54.863Z,67.05
2017-04-13T13:08:54.897Z,67.52
2017-04-13T13:09:54.934Z,67.11
2017-04-13T13:10:54.958Z,68.06
2017-04-13T13:11:54.997Z,67.87
2017-04-13T13:12:55.039Z,67.97
2017-04-13T13:13:55.062Z,67.68
2017-04-13T13:14:55.095Z,67.49
2017-04-13T13:15:55.132Z,66.92
2017-04-13T13:16:55.158Z,66.63
2017-04-13T13:17:55.194Z,66.44
2017-04-13T13:18:55.230Z,66.82
2017-04-13T13:19:55.251Z,66.72
2017-04-13T13:20:55.292Z,66.92
2017-04-13T13:21:55.329Z,67.77
2017-04-13T13:22:55.342Z,68.44
2017-04-13T13:23:55.386Z,68.54
2017-04-13T13:24:55.424Z,68.44
2017-04-13T13:25:55.451Z,66.82
2017-04-13T13:26:55.485Z,66.25
2017-04-13T13:27:55.517Z,65.3
2017-04-13T13:28:55.549Z,64.28
2017-04-13T13:29:55.579Z,63.42
2017-04-13T13:30:55.615Z,62.65
2017-04-13T13:31:55.645Z,60.93
2017-04-13T13:32:55.674Z,61.25
2017-04-13T13:33:55.710Z,61.35
2017-04-13T13:34:55.746Z,60.68
2017-04-13T13:35:55.776Z,59.91
2017-04-13T13:36:55.808Z,59.84
2017-04-13T13:37:55.844Z,59.66
2017-04-13T13:38:55.875Z,59.27
2017-04-13T13:39:55.908Z,59.84
2017-04-13T13:40:55.943Z,58.95
2017-04-13T13:41:55.974Z,59.24
2017-04-13T13:42:56.005Z,59.81
2017-04-13T13:43:56.040Z,60.3
2017-04-13T13:44:56.076Z,61.16
2017-04-13T13:45:56.107Z,62.18
2017-04-13T13:46:56.145Z,62.94
2017-04-13T13:47:56.170Z,62.84
2017-04-13T13:48:56.189Z,63.13
2017-04-13T13:49:56.414Z,63.03
2017-04-13T13:50:56.271Z,62.49
2017-04-13T13:51:56.304Z,62.3
2017-04-13T13:52:56.492Z,61.92
2017-04-13T13:53:56.372Z,61.92
2017-04-13T13:54:56.405Z,61.92
2017-04-13T13:55:56.442Z,62.11
2017-04-13T13:56:56.471Z,62.3
2017-04-13T13:57:56.753Z,63.07
2017-04-13T13:58:56.539Z,64.09
2017-04-13T13:59:56.569Z,64.28
2017-04-13T14:00:56.602Z,63.51
2017-04-13T14:01:56.653Z,64.18
2017-04-13T14:02:56.671Z,64.05
2017-04-13T14:03:56.705Z,64.62
2017-04-13T14:04:56.733Z,64.72
2017-04-13T14:05:56.771Z,64.43
2017-04-13T14:06:56.800Z,65.77
2017-04-13T14:07:56.823Z,65.87
2017-04-13T14:08:56.858Z,65.1
2017-04-13T14:09:56.899Z,64.53
2017-04-13T14:10:56.925Z,64.34
2017-04-13T14:11:56.953Z,63.8
2017-04-13T14:12:56.999Z,63.51
2017-04-13T14:13:57.030Z,63.35
2017-04-13T14:14:57.054Z,62.87
2017-04-13T14:15:57.092Z,62.62
2017-04-13T14:16:57.125Z,62.04
2017-04-13T14:17:57.151Z,61.76
2017-04-13T14:18:57.188Z,62.04
2017-04-13T14:19:57.224Z,62.3
2017-04-13T14:20:57.279Z,62.59
2017-04-13T14:21:57.294Z,62.87
2017-04-13T14:22:57.323Z,63.83
2017-04-13T14:23:57.345Z,64.18
2017-04-13T14:24:57.436Z,64.18
2017-04-13T14:25:57.418Z,64.47
2017-04-13T14:26:57.444Z,64.65
2017-04-13T14:27:57.487Z,65.01
2017-04-13T14:28:57.524Z,65.87
2017-04-13T14:29:57.548Z,66.06
2017-04-13T14:30:57.585Z,66.15
2017-04-13T14:31:57.615Z,66.25
2017-04-13T14:32:57.651Z,66.92
2017-04-13T14:33:57.688Z,66.63
2017-04-13T14:34:57.715Z,67.3
2017-04-13T14:35:57.746Z,67.87
2017-04-13T14:36:57.779Z,67.58
2017-04-13T14:37:57.814Z,67.68
2017-04-13T14:38:57.994Z,67.97
2017-04-13T14:39:57.874Z,68.26
2017-04-13T14:40:57.913Z,68.16
2017-04-13T14:41:57.949Z,67.77
2017-04-13T14:42:57.981Z,67.46
2017-04-13T14:43:58.111Z,67.36
2017-04-13T14:44:58.048Z,68.26
2017-04-13T14:45:58.074Z,68.35
2017-04-13T14:46:58.107Z,68.44
2017-04-13T14:47:58.135Z,68.38
2017-04-13T14:48:58.172Z,67.81
2017-04-13T14:49:58.203Z,67.91
2017-04-13T14:50:58.241Z,67.91
2017-04-13T14:51:58.251Z,68.16
2017-04-13T14:52:58.294Z,69.11
2017-04-13T14:53:58.331Z,69.68
2017-04-13T14:54:58.376Z,70.45
2017-04-13T14:55:58.395Z,70.16
2017-04-13T14:56:58.429Z,70.16
2017-04-13T14:57:58.454Z,70.07
2017-04-13T14:58:58.496Z,70.03
2017-04-13T14:59:58.554Z,69.84
2017-04-13T15:00:58.561Z,70.51
2017-04-13T15:01:58.588Z,70.13
2017-04-13T15:02:58.632Z,69.93
2017-04-13T15:03:58.653Z,69.27
2017-04-13T15:04:58.690Z,68.41
2017-04-13T15:05:58.722Z,67.17
2017-04-13T15:06:58.748Z,66.63
2017-04-13T15:07:58.783Z,66.82
2017-04-13T15:08:58.818Z,66.82
2017-04-13T15:09:58.850Z,65.58
2017-04-13T15:10:58.872Z,65.77
2017-04-13T15:11:58.914Z,66.53
2017-04-13T15:12:58.943Z,65.87
2017-04-13T15:13:58.960Z,65.96
2017-04-13T15:14:59.016Z,66.88
2017-04-13T15:15:59.044Z,67.83
2017-04-13T15:16:59.075Z,67.65
2017-04-13T15:17:59.097Z,67.65
2017-04-13T15:18:59.142Z,67.55
2017-04-13T15:19:59.173Z,67.65
2017-04-13T15:20:59.198Z,68.03
2017-04-13T15:21:59.232Z,67.36
2017-04-13T15:22:59.267Z,66.6
2017-04-13T15:23:59.295Z,66.5
2017-04-13T15:24:59.433Z,66.53
2017-04-13T15:25:59.352Z,65.77
2017-04-13T15:26:59.433Z,65.74
2017-04-13T15:27:59.431Z,65.67
2017-04-13T15:28:59.456Z,65.58
2017-04-13T15:29:59.487Z,65.58
2017-04-13T15:30:59.524Z,65.93
2017-04-13T15:31:59.592Z,66.02
2017-04-13T15:32:59.593Z,66.69
2017-04-13T15:33:59.616Z,66.41
2017-04-13T15:34:59.641Z,66.41
2017-04-13T15:35:59.680Z,67.04
2017-04-13T15:36:59.709Z,67.52
2017-04-13T15:37:59.782Z,67.61
2017-04-13T15:38:59.781Z,68.18
2017-04-13T15:39:59.811Z,69.04
2017-04-13T15:40:59.831Z,69.23
2017-04-13T15:41:59.871Z,69.33
2017-04-13T15:42:59.903Z,69.62
2017-04-13T15:43:59.940Z,69.9
2017-04-13T15:44:59.966Z,70.28
2017-04-13T15:46:00.002Z,70.38
2017-04-13T15:47:00.036Z,70.09
2017-04-13T15:48:00.067Z,70.38
2017-04-13T15:49:00.097Z,70.19
2017-04-13T15:50:00.124Z,70.38
2017-04-13T15:51:00.161Z,70.28
2017-04-13T15:52:00.198Z,70.57
2017-04-13T15:53:00.218Z,70.19
2017-04-13T15:54:00.253Z,69.74
2017-04-13T15:55:00.287Z,69.93
2017-04-13T15:56:00.317Z,69.65
2017-04-13T15:57:00.353Z,69.17
2017-04-13T15:58:00.372Z,69.46
2017-04-13T15:59:00.418Z,69.27
2017-04-13T16:00:00.447Z,69.65
2017-04-13T16:01:00.474Z,69.08
2017-04-13T16:02:00.512Z,69.17
2017-04-13T16:03:00.541Z,69.27
2017-04-13T16:04:00.596Z,69.56
2017-04-13T16:05:00.817Z,69.52
2017-04-13T16:06:00.642Z,69.52
2017-04-13T16:07:00.662Z,69.71
2017-04-13T16:08:00.701Z,70.09
2017-04-13T16:09:00.735Z,70.19
2017-04-13T16:10:00.767Z,70.76
2017-04-13T16:11:00.787Z,70.76
2017-04-13T16:12:00.827Z,70.82
2017-04-13T16:13:00.857Z,70.72
2017-04-13T16:14:00.886Z,70.63
2017-04-13T16:15:00.924Z,71.39
2017-04-13T16:16:00.962Z,71.68
2017-04-13T16:17:00.987Z,71.58
2017-04-13T16:18:01.012Z,71.48
2017-04-13T16:19:01.051Z,72.25
2017-04-13T16:20:01.083Z,71.48
2017-04-13T16:21:01.112Z,70.63
2017-04-13T16:22:01.143Z,70.82
2017-04-13T16:23:01.174Z,70.63
2017-04-13T16:24:01.246Z,70.92
2017-04-13T16:25:01.239Z,70.67
2017-04-13T16:26:01.284Z,71.52
2017-04-13T16:27:01.286Z,70.95
2017-04-13T16:28:01.329Z,70.67
2017-04-13T16:29:01.362Z,71.23
2017-04-13T16:30:01.390Z,71.72
2017-04-13T16:31:01.424Z,71.14
2017-04-13T16:32:01.459Z,70.76
2017-04-13T16:33:01.480Z,71.14
2017-04-13T16:34:01.520Z,70.76
2017-04-13T16:35:01.554Z,70.86
2017-04-13T16:36:01.572Z,71.04
2017-04-13T16:37:01.613Z,69.81
2017-04-13T16:38:01.646Z,69.52
2017-04-13T16:39:01.675Z,69.1
2017-04-13T16:40:01.708Z,68.63
2017-04-13T16:41:01.744Z,67.96
2017-04-13T16:42:01.776Z,68.24
2017-04-13T16:43:01.805Z,68.24
2017-04-13T16:44:01.840Z,69.29
2017-04-13T16:45:01.874Z,68.34
2017-04-13T16:46:01.900Z,68.34
2017-04-13T16:47:01.931Z,67.93
2017-04-13T16:48:01.945Z,68.02
2017-04-13T16:49:01.990Z,68.21
2017-04-13T16:50:02.026Z,68.21
2017-04-13T16:51:02.060Z,68.59
2017-04-13T16:52:02.089Z,68.78
2017-04-13T16:53:02.122Z,68.69
2017-04-13T16:54:02.146Z,68.98
2017-04-13T16:55:02.182Z,69.54
2017-04-13T16:56:02.215Z,69.54
2017-04-13T16:57:02.245Z,69.74
2017-04-13T16:58:02.278Z,69.54
2017-04-13T16:59:02.306Z,69.54
2017-04-13T17:00:02.334Z,69.83
2017-04-13T17:01:02.377Z,70.4
2017-04-13T17:02:02.405Z,70.21
2017-04-13T17:03:02.469Z,70.31
2017-04-13T17:04:02.462Z,70.5
2017-04-13T17:05:02.477Z,70.97
2017-04-13T17:06:02.520Z,70.78
2017-04-13T17:07:02.598Z,70.78
2017-04-13T17:08:02.584Z,70.69
2017-04-13T17:09:02.612Z,71.03
2017-04-13T17:10:02.652Z,70.94
2017-04-13T17:11:02.677Z,72.08
2017-04-13T17:12:02.709Z,71.89
2017-04-13T17:13:02.743Z,72.37
2017-04-13T17:14:02.769Z,72.46
2017-04-13T17:15:02.802Z,73.03
2017-04-13T17:16:02.836Z,73.03
2017-04-13T17:17:02.869Z,73.32
2017-04-13T17:18:02.894Z,73.7
2017-04-13T17:19:02.926Z,73.7
2017-04-13T17:20:02.960Z,74.18
2017-04-13T17:21:02.997Z,73.76
2017-04-13T17:22:03.017Z,74.08
2017-04-13T17:23:03.052Z,74.56
2017-04-13T17:24:03.084Z,74.8
2017-04-13T17:25:03.112Z,74.9
2017-04-13T17:26:03.147Z,75.57
2017-04-13T17:27:03.171Z,75.38
2017-04-13T17:28:03.199Z,75.47
2017-04-13T17:29:03.231Z,75.95
2017-04-13T17:30:03.263Z,75.95
2017-04-13T17:31:03.295Z,76.14
2017-04-13T17:32:03.338Z,76.33
2017-04-13T17:33:03.369Z,76.04
2017-04-13T17:34:03.383Z,76.23
2017-04-13T17:35:03.447Z,75.95
2017-04-13T17:36:03.446Z,76.14
2017-04-13T17:37:03.483Z,76.71
2017-04-13T17:38:03.511Z,76.71
2017-04-13T17:39:03.540Z,76.81
2017-04-13T17:40:03.586Z,77
2017-04-13T17:41:03.595Z,77.37
2017-04-13T17:42:03.630Z,77.09
2017-04-13T17:43:03.663Z,77.28
2017-04-13T17:44:03.679Z,77.47
2017-04-13T17:45:03.709Z,77
2017-04-13T17:46:03.759Z,77.66
2017-04-13T17:47:03.787Z,77.47
2017-04-13T17:48:03.814Z,77.47
2017-04-13T17:49:03.831Z,76.9
2017-04-13T17:50:03.879Z,76.04
2017-04-13T17:51:03.908Z,76.14
2017-04-13T17:52:03.938Z,76.33
2017-04-13T17:53:03.966Z,75.95
2017-04-13T17:54:04.000Z,75.95
2017-04-13T17:55:04.027Z,74.9
2017-04-13T17:56:04.057Z,75.38
2017-04-13T17:57:04.081Z,75.38
2017-04-13T17:58:04.117Z,75.28
2017-04-13T17:59:04.137Z,74.52
2017-04-13T18:00:04.199Z,74.62
2017-04-13T18:01:04.213Z,75.13
2017-04-13T18:02:04.242Z,75.19
2017-04-13T18:03:04.273Z,74.62
2017-04-13T18:04:04.296Z,73.95
2017-04-13T18:05:04.333Z,73.95
2017-04-13T18:06:04.373Z,74.14
2017-04-13T18:07:04.387Z,73.95
2017-04-13T18:08:04.425Z,73.57
2017-04-13T18:09:04.442Z,74.14
2017-04-13T18:10:04.600Z,74.04
2017-04-13T18:11:04.510Z,74.33
2017-04-13T18:12:04.539Z,74.14
2017-04-13T18:13:04.574Z,74.04
2017-04-13T18:14:04.605Z,74.33
2017-04-13T18:15:04.627Z,73.76
2017-04-13T18:16:04.665Z,74.14
2017-04-13T18:17:04.691Z,74.33
2017-04-13T18:18:04.724Z,74.33
2017-04-13T18:19:04.754Z,74.71
2017-04-13T18:20:04.823Z,74.52
2017-04-13T18:21:04.815Z,75.28
2017-04-13T18:22:04.847Z,74.9
2017-04-13T18:23:04.879Z,75.09
2017-04-13T18:24:04.908Z,74.9
2017-04-13T18:25:04.944Z,75.19
2017-04-13T18:26:04.959Z,74.8
2017-04-13T18:27:04.999Z,74.99
2017-04-13T18:28:05.027Z,74.9
2017-04-13T18:29:05.062Z,74.8
2017-04-13T18:30:05.097Z,74.9
2017-04-13T18:31:05.116Z,75.47
2017-04-13T18:32:05.148Z,75.19
2017-04-13T18:33:05.180Z,75.38
2017-04-13T18:34:05.212Z,75.47
2017-04-13T18:35:05.251Z,75.76
2017-04-13T18:36:05.268Z,75.95
2017-04-13T18:37:05.287Z,75.95
2017-04-13T18:38:05.329Z,76.14
2017-04-13T18:39:05.361Z,76.52
2017-04-13T18:40:05.388Z,77.24
2017-04-13T18:41:05.423Z,77.34
2017-04-13T18:42:05.449Z,77.81
2017-04-13T18:43:05.483Z,78.19
2017-04-13T18:44:05.515Z,77.81
2017-04-13T18:45:05.538Z,78.1
2017-04-13T18:46:05.571Z,79.05
2017-04-13T18:47:05.588Z,79.33
2017-04-13T18:48:05.629Z,80
2017-04-13T18:49:05.661Z,80.1
2017-04-13T18:50:05.693Z,80
2017-04-13T18:51:05.869Z,79.91
2017-04-13T18:52:05.761Z,80.29
2017-04-13T18:53:05.791Z,80.38
2017-04-13T18:54:05.813Z,81.05
2017-04-13T18:55:05.843Z,80.76
2017-04-13T18:56:05.883Z,81.24
2017-04-13T18:57:05.906Z,81.52
2017-04-13T18:58:05.959Z,81.43
2017-04-13T18:59:05.975Z,81.52
2017-04-13T19:00:05.978Z,81.71
2017-04-13T19:01:06.062Z,81.71
2017-04-13T19:02:06.059Z,82.19
2017-04-13T19:03:06.087Z,82.28
2017-04-13T19:04:06.107Z,82.09
2017-04-13T19:05:06.160Z,82.67
2017-04-13T19:06:06.170Z,82.67
2017-04-13T19:07:06.208Z,82.81
2017-04-13T19:08:06.230Z,82.48
2017-04-13T19:09:06.260Z,82.91
2017-04-13T19:10:06.285Z,82.95
2017-04-13T19:11:06.322Z,82.67
2017-04-13T19:12:06.348Z,82.48
2017-04-13T19:13:06.380Z,82.76
2017-04-13T19:14:06.395Z,82.57
2017-04-13T19:15:06.444Z,82.67
2017-04-13T19:16:06.470Z,82.67
2017-04-13T19:17:06.491Z,83.04
2017-04-13T19:18:06.528Z,83.04
2017-04-13T19:19:06.549Z,83.42
2017-04-13T19:20:06.595Z,83.52
2017-04-13T19:21:06.617Z,83.52
2017-04-13T19:22:06.649Z,83.33
2017-04-13T19:23:06.678Z,83.52
2017-04-13T19:24:06.705Z,83.42
2017-04-13T19:25:06.743Z,83.42
2017-04-13T19:26:06.763Z,83.9
2017-04-13T19:27:06.794Z,83.42
2017-04-13T19:28:06.826Z,83.33
2017-04-13T19:29:06.855Z,83.62
2017-04-13T19:30:06.906Z,83.52
2017-04-13T19:31:06.918Z,83.52
2017-04-13T19:32:06.941Z,83.62
2017-04-13T19:33:06.975Z,83.42
2017-04-13T19:34:06.986Z,83.42
2017-04-13T19:35:07.033Z,84
2017-04-13T19:36:07.065Z,83.71
2017-04-13T19:37:07.092Z,83.9
2017-04-13T19:38:07.116Z,83.71
2017-04-13T19:39:07.152Z,83.62
2017-04-13T19:40:07.419Z,83.62
2017-04-13T19:41:07.208Z,84.09
2017-04-13T19:42:07.239Z,84.09
2017-04-13T19:43:07.275Z,84.09
2017-04-13T19:44:07.289Z,84.09
2017-04-13T19:45:07.421Z,84.38
2017-04-13T19:46:07.360Z,84.28
2017-04-13T19:47:07.382Z,84.09
2017-04-13T19:48:07.414Z,84.09
2017-04-13T19:49:07.449Z,84.56
2017-04-13T19:50:07.479Z,84.43
2017-04-13T19:51:07.507Z,84.47
2017-04-13T19:52:07.537Z,84.76
2017-04-13T19:53:07.569Z,84.38
2017-04-13T19:54:07.595Z,84.91
2017-04-13T19:55:07.628Z,84.38
2017-04-13T19:56:07.659Z,84.91
2017-04-13T19:57:07.677Z,84.24
2017-04-13T19:58:07.713Z,84.91
2017-04-13T19:59:07.747Z,85
2017-04-13T20:00:07.782Z,85.28
2017-04-13T20:01:07.816Z,85.47
2017-04-13T20:02:07.837Z,85.1
2017-04-13T20:03:07.876Z,85.38
2017-04-13T20:04:07.893Z,85.57
2017-04-13T20:05:07.928Z,85.66
2017-04-13T20:06:07.952Z,85.66
2017-04-13T20:07:07.984Z,85.86
2017-04-13T20:08:08.012Z,85.57
2017-04-13T20:09:08.041Z,85.76
2017-04-13T20:10:08.074Z,85.76
2017-04-13T20:11:08.096Z,85.47
2017-04-13T20:12:08.137Z,85.76
2017-04-13T20:13:08.159Z,85.66
2017-04-13T20:14:08.194Z,85.47
2017-04-13T20:15:08.208Z,84.91
2017-04-13T20:16:08.239Z,85.1
2017-04-13T20:17:08.283Z,85
2017-04-13T20:18:08.308Z,85.38
2017-04-13T20:19:08.340Z,85.38
2017-04-13T20:20:08.357Z,85.19
2017-04-13T20:21:08.403Z,85.86
2017-04-13T20:22:08.426Z,85.76
2017-04-13T20:23:08.466Z,86.05
2017-04-13T20:24:08.487Z,86.52
2017-04-13T20:25:08.515Z,86.14
2017-04-13T20:26:08.661Z,86.24
2017-04-13T20:27:08.566Z,86.52
2017-04-13T20:28:08.603Z,86.9
2017-04-13T20:29:08.640Z,86.8
2017-04-13T20:30:08.661Z,87.19
2017-04-13T20:31:08.807Z,86.99
2017-04-13T20:32:08.724Z,86.9
2017-04-13T20:33:08.758Z,86.61
2017-04-13T20:34:08.784Z,86.33
2017-04-13T20:35:08.814Z,86.43
2017-04-13T20:36:08.843Z,86.9
2017-04-13T20:37:08.868Z,86.52
2017-04-13T20:38:08.901Z,87.19
2017-04-13T20:39:08.928Z,86.9
2017-04-13T20:40:08.967Z,86.9
2017-04-13T20:41:08.993Z,87.09
2017-04-13T20:42:09.020Z,86.9
2017-04-13T20:43:09.046Z,87.19
2017-04-13T20:44:09.075Z,86.71
2017-04-13T20:45:09.110Z,86.99
2017-04-13T20:46:09.135Z,86.71
2017-04-13T20:47:09.167Z,86.52
2017-04-13T20:48:09.198Z,86.52
2017-04-13T20:49:09.224Z,86.99
2017-04-13T20:50:09.257Z,86.52
2017-04-13T20:51:09.286Z,86.33
2017-04-13T20:52:09.316Z,85.86
2017-04-13T20:53:09.343Z,86.24
2017-04-13T20:54:09.370Z,85.76
2017-04-13T20:55:09.402Z,85.57
2017-04-13T20:56:09.428Z,85.95
2017-04-13T20:57:09.462Z,85.76
2017-04-13T20:58:09.477Z,86.05
2017-04-13T20:59:09.513Z,85.95
2017-04-13T21:00:09.552Z,86.52
2017-04-13T21:01:09.579Z,86.43
2017-04-13T21:02:09.611Z,86.24
2017-04-13T21:03:09.641Z,86.33
2017-04-13T21:04:09.666Z,86.52
2017-04-13T21:05:09.842Z,86.43
2017-04-13T21:06:09.729Z,86.99
2017-04-13T21:07:09.758Z,86.99
2017-04-13T21:08:09.785Z,86.9
2017-04-13T21:09:09.809Z,87.09
2017-04-13T21:10:09.851Z,87.14
2017-04-13T21:11:09.875Z,86.99
2017-04-13T21:12:09.885Z,87.09
2017-04-13T21:13:09.929Z,86.99
2017-04-13T21:14:09.948Z,86.99
2017-04-13T21:15:09.987Z,87.09
2017-04-13T21:16:10.019Z,86.99
2017-04-13T21:17:10.050Z,87.09
2017-04-13T21:18:10.068Z,87.28
2017-04-13T21:19:10.104Z,87.57
2017-04-13T21:20:10.137Z,87.19
2017-04-13T21:21:10.169Z,87.09
2017-04-13T21:22:10.195Z,86.71
2017-04-13T21:23:10.226Z,86.71
2017-04-13T21:24:10.254Z,86.52
2017-04-13T21:25:10.285Z,86.8
2017-04-13T21:26:10.314Z,87.19
2017-04-13T21:27:10.341Z,87.19
2017-04-13T21:28:10.374Z,87.19
2017-04-13T21:29:10.398Z,86.99
2017-04-13T21:30:10.437Z,86.43
2017-04-13T21:31:10.467Z,86.61
2017-04-13T21:32:10.477Z,86.95
2017-04-13T21:33:10.520Z,86.52
2017-04-13T21:34:10.550Z,86.71
2017-04-13T21:35:10.576Z,86.9
2017-04-13T21:36:10.607Z,86.8
2017-04-13T21:37:10.634Z,86.61
2017-04-13T21:38:10.664Z,86.43
2017-04-13T21:39:10.691Z,86.24
2017-04-13T21:40:10.728Z,86.57
2017-04-13T21:41:10.752Z,86.99
2017-04-13T21:42:10.788Z,86.57
2017-04-13T21:43:10.797Z,86.57
2017-04-13T21:44:10.828Z,86.95
2017-04-13T21:45:10.865Z,87.24
2017-04-13T21:46:10.885Z,87.14
2017-04-13T21:47:10.932Z,86.86
2017-04-13T21:48:10.959Z,86.95
2017-04-13T21:49:10.991Z,87.62
2017-04-13T21:50:11.004Z,87.81
2017-04-13T21:51:11.191Z,88.19
2017-04-13T21:52:11.085Z,88.71
2017-04-13T21:53:11.097Z,89.19
2017-04-13T21:54:11.133Z,89.57
2017-04-13T21:55:11.162Z,90.05
2017-04-13T21:56:11.196Z,90.42
2017-04-13T21:57:11.269Z,90.23
2017-04-13T21:58:11.257Z,90.8
2017-04-13T21:59:11.275Z,90.8
2017-04-13T22:00:11.299Z,90.52
2017-04-13T22:01:11.348Z,90.71
2017-04-13T22:02:11.371Z,90.71
2017-04-13T22:03:11.395Z,90.71
2017-04-13T22:04:11.422Z,90.99
2017-04-13T22:05:11.605Z,90.8
2017-04-13T22:06:11.487Z,90.9
2017-04-13T22:07:11.512Z,90.99
2017-04-13T22:08:11.537Z,90.8
2017-04-13T22:09:11.570Z,90.9
2017-04-13T22:10:11.596Z,90.71
2017-04-13T22:11:11.630Z,90.42
2017-04-13T22:12:11.656Z,90.05
2017-04-13T22:13:11.689Z,90.42
2017-04-13T22:14:11.716Z,90.23
2017-04-13T22:15:11.742Z,90.33
2017-04-13T22:16:11.778Z,90.23
2017-04-13T22:17:11.788Z,90.76
2017-04-13T22:18:11.827Z,91.52
2017-04-13T22:19:11.858Z,91.33
2017-04-13T22:20:11.891Z,91.33
2017-04-13T22:21:11.919Z,90.66
2017-04-13T22:22:11.942Z,91.33
2017-04-13T22:23:11.972Z,91.33
2017-04-13T22:24:11.997Z,91.8
2017-04-13T22:25:12.030Z,92.28
2017-04-13T22:26:12.063Z,92.28
2017-04-13T22:27:12.088Z,92.37
2017-04-13T22:28:12.117Z,93.04
2017-04-13T22:29:12.148Z,93.41
2017-04-13T22:30:12.174Z,93.32
2017-04-13T22:31:12.203Z,93.51
2017-04-13T22:32:12.232Z,93.23
2017-04-13T22:33:12.262Z,93.13
2017-04-13T22:34:12.290Z,93.8
2017-04-13T22:35:12.314Z,94.18
2017-04-13T22:36:12.343Z,94.37
2017-04-13T22:37:12.381Z,94.46
2017-04-13T22:38:12.393Z,94.27
2017-04-13T22:39:12.434Z,94.46
2017-04-13T22:40:12.464Z,94.18
2017-04-13T22:41:12.489Z,94.18
2017-04-13T22:42:12.516Z,94.46
2017-04-13T22:43:12.546Z,94.18
2017-04-13T22:44:12.569Z,94.27
2017-04-13T22:45:12.631Z,94.93
2017-04-13T22:46:12.737Z,94.84
2017-04-13T22:47:12.655Z,94.93
2017-04-13T22:48:12.695Z,94.46
2017-04-13T22:49:12.729Z,94.93
2017-04-13T22:50:12.745Z,95.03
2017-04-13T22:51:12.879Z,94.84
2017-04-13T22:52:12.808Z,94.74
2017-04-13T22:53:12.817Z,94.56
2017-04-13T22:54:12.860Z,94.46
2017-04-13T22:55:12.882Z,94.46
2017-04-13T22:56:12.911Z,94.18
2017-04-13T22:57:12.951Z,94.08